sensor_id;sensor_type;location;lat;lon;timestamp;temperature;humidity
6930;DHT22;3504;52.616;13.238;2023-03-01T00:04:42;-1.71;71.75
6930;DHT22;3504;52.616;13.238;2023-03-01T00:09:43;-1.74;71.70
6930;DHT22;3504;52.616;13.238;2023-03-01T00:14:46;-1.77;71.65
6930;DHT22;3504;52.616;13.238;2023-03-01T00:19:46;-1.77;71.51
6930;DHT22;3504;52.616;13.238;2023-03-01T00:24:47;-1.79;71.86
6930;DHT22;3504;52.616;13.238;2023-03-01T00:29:47;-1.81;71.70
6930;DHT22;3504;52.616;13.238;2023-03-01T00:34:48;-1.83;71.39
6930;DHT22;3504;52.616;13.238;2023-03-01T00:39:54;-2.14;73.82
6930;DHT22;3504;52.616;13.238;2023-03-01T00:44:55;-2.44;75.19
6930;DHT22;3504;52.616;13.238;2023-03-01T00:49:56;-2.46;74.88
6930;DHT22;3504;52.616;13.238;2023-03-01T00:54:56;-2.42;74.34
6930;DHT22;3504;52.616;13.238;2023-03-01T00:59:58;-2.34;73.58
6930;DHT22;3504;52.616;13.238;2023-03-01T01:05:00;-2.43;74.25
6930;DHT22;3504;52.616;13.238;2023-03-01T01:10:00;-2.39;73.93
6930;DHT22;3504;52.616;13.238;2023-03-01T01:15:01;-2.37;73.62
6930;DHT22;3504;52.616;13.238;2023-03-01T01:20:02;-2.34;73.36
6930;DHT22;3504;52.616;13.238;2023-03-01T01:25:04;-2.36;73.27
6930;DHT22;3504;52.616;13.238;2023-03-01T01:30:05;-2.36;73.10
6930;DHT22;3504;52.616;13.238;2023-03-01T01:35:06;-2.37;72.97
6930;DHT22;3504;52.616;13.238;2023-03-01T01:40:08;-2.40;73.30
6930;DHT22;3504;52.616;13.238;2023-03-01T01:45:33;-2.49;73.11
6930;DHT22;3504;52.616;13.238;2023-03-01T01:50:35;-2.49;73.37
6930;DHT22;3504;52.616;13.238;2023-03-01T01:55:46;-2.50;73.25
6930;DHT22;3504;52.616;13.238;2023-03-01T02:00:48;-2.52;73.03
6930;DHT22;3504;52.616;13.238;2023-03-01T02:06:10;-2.61;73.82
6930;DHT22;3504;52.616;13.238;2023-03-01T02:11:12;-2.73;74.50
6930;DHT22;3504;52.616;13.238;2023-03-01T02:16:15;-2.74;74.16
6930;DHT22;3504;52.616;13.238;2023-03-01T02:26:46;-2.74;73.77
6930;DHT22;3504;52.616;13.238;2023-03-01T02:31:49;-2.74;73.83
6930;DHT22;3504;52.616;13.238;2023-03-01T02:37:00;-2.80;73.93
6930;DHT22;3504;52.616;13.238;2023-03-01T02:42:02;-2.87;73.89
6930;DHT22;3504;52.616;13.238;2023-03-01T02:47:04;-2.85;73.94
6930;DHT22;3504;52.616;13.238;2023-03-01T02:57:30;-2.87;74.32
6930;DHT22;3504;52.616;13.238;2023-03-01T03:02:32;-2.89;74.15
6930;DHT22;3504;52.616;13.238;2023-03-01T03:07:40;-2.92;74.04
6930;DHT22;3504;52.616;13.238;2023-03-01T03:12:42;-3.12;75.67
6930;DHT22;3504;52.616;13.238;2023-03-01T03:17:42;-3.16;75.75
6930;DHT22;3504;52.616;13.238;2023-03-01T03:22:43;-3.11;75.09
6930;DHT22;3504;52.616;13.238;2023-03-01T03:27:45;-3.11;74.98
6930;DHT22;3504;52.616;13.238;2023-03-01T03:32:47;-3.19;75.28
6930;DHT22;3504;52.616;13.238;2023-03-01T03:37:52;-3.16;75.09
6930;DHT22;3504;52.616;13.238;2023-03-01T03:43:05;-3.18;74.55
6930;DHT22;3504;52.616;13.238;2023-03-01T03:48:08;-3.26;75.14
6930;DHT22;3504;52.616;13.238;2023-03-01T03:53:12;-3.26;74.58
6930;DHT22;3504;52.616;13.238;2023-03-01T03:58:13;-3.23;74.95
6930;DHT22;3504;52.616;13.238;2023-03-01T04:03:16;-3.26;74.70
6930;DHT22;3504;52.616;13.238;2023-03-01T04:08:19;-3.32;74.86
6930;DHT22;3504;52.616;13.238;2023-03-01T04:13:22;-3.36;74.67
6930;DHT22;3504;52.616;13.238;2023-03-01T04:18:25;-3.33;74.72
6930;DHT22;3504;52.616;13.238;2023-03-01T04:23:26;-3.35;74.76
6930;DHT22;3504;52.616;13.238;2023-03-01T04:28:39;-3.35;74.51
6930;DHT22;3504;52.616;13.238;2023-03-01T04:33:45;-3.39;74.63
6930;DHT22;3504;52.616;13.238;2023-03-01T04:38:46;-3.43;74.49
6930;DHT22;3504;52.616;13.238;2023-03-01T04:43:48;-3.44;74.74
6930;DHT22;3504;52.616;13.238;2023-03-01T04:48:49;-3.44;74.19
6930;DHT22;3504;52.616;13.238;2023-03-01T04:53:49;-3.47;74.79
6930;DHT22;3504;52.616;13.238;2023-03-01T04:58:53;-3.47;74.89
6930;DHT22;3504;52.616;13.238;2023-03-01T05:03:54;-3.50;74.80
6930;DHT22;3504;52.616;13.238;2023-03-01T05:08:54;-3.56;74.77
6930;DHT22;3504;52.616;13.238;2023-03-01T05:13:55;-3.60;74.82
6930;DHT22;3504;52.616;13.238;2023-03-01T05:18:56;-3.61;74.62
6930;DHT22;3504;52.616;13.238;2023-03-01T05:23:57;-3.64;74.48
6930;DHT22;3504;52.616;13.238;2023-03-01T05:28:57;-3.64;74.47
6930;DHT22;3504;52.616;13.238;2023-03-01T05:33:58;-3.67;74.68
6930;DHT22;3504;52.616;13.238;2023-03-01T05:38:59;-3.71;74.95
6930;DHT22;3504;52.616;13.238;2023-03-01T05:44:00;-3.74;75.02
6930;DHT22;3504;52.616;13.238;2023-03-01T05:49:00;-3.76;75.06
6930;DHT22;3504;52.616;13.238;2023-03-01T05:54:01;-3.77;74.88
6930;DHT22;3504;52.616;13.238;2023-03-01T05:59:02;-3.81;75.00
6930;DHT22;3504;52.616;13.238;2023-03-01T06:04:04;-3.78;74.87
6930;DHT22;3504;52.616;13.238;2023-03-01T06:09:06;-3.76;74.94
6930;DHT22;3504;52.616;13.238;2023-03-01T06:14:07;-3.77;75.14
6930;DHT22;3504;52.616;13.238;2023-03-01T06:19:08;-3.76;75.09
6930;DHT22;3504;52.616;13.238;2023-03-01T06:24:08;-3.71;74.93
6930;DHT22;3504;52.616;13.238;2023-03-01T06:29:09;-3.70;75.16
6930;DHT22;3504;52.616;13.238;2023-03-01T06:34:09;-3.66;75.44
6930;DHT22;3504;52.616;13.238;2023-03-01T06:39:13;-3.71;76.27
6930;DHT22;3504;52.616;13.238;2023-03-01T06:44:14;-3.68;76.75
6930;DHT22;3504;52.616;13.238;2023-03-01T06:49:14;-3.56;76.59
6930;DHT22;3504;52.616;13.238;2023-03-01T06:54:16;-3.44;76.38
6930;DHT22;3504;52.616;13.238;2023-03-01T06:59:18;-3.33;76.62
6930;DHT22;3504;52.616;13.238;2023-03-01T07:04:18;-3.18;76.22
6930;DHT22;3504;52.616;13.238;2023-03-01T07:09:19;-3.02;76.69
6930;DHT22;3504;52.616;13.238;2023-03-01T07:14:22;-2.88;76.48
6930;DHT22;3504;52.616;13.238;2023-03-01T07:19:24;-2.73;76.64
6930;DHT22;3504;52.616;13.238;2023-03-01T07:24:25;-2.57;76.86
6930;DHT22;3504;52.616;13.238;2023-03-01T07:29:25;-2.46;77.02
6930;DHT22;3504;52.616;13.238;2023-03-01T07:34:26;-2.29;78.12
6930;DHT22;3504;52.616;13.238;2023-03-01T07:39:26;-2.09;78.89
6930;DHT22;3504;52.616;13.238;2023-03-01T07:44:27;-1.91;78.63
6930;DHT22;3504;52.616;13.238;2023-03-01T07:49:28;-1.68;77.67
6930;DHT22;3504;52.616;13.238;2023-03-01T07:54:28;-1.48;77.40
6930;DHT22;3504;52.616;13.238;2023-03-01T07:59:29;-1.30;77.55
6930;DHT22;3504;52.616;13.238;2023-03-01T08:04:30;-1.04;77.00
6930;DHT22;3504;52.616;13.238;2023-03-01T08:09:30;-0.85;76.34
6930;DHT22;3504;52.616;13.238;2023-03-01T08:14:32;-0.62;75.54
6930;DHT22;3504;52.616;13.238;2023-03-01T08:19:33;-0.37;75.07
6930;DHT22;3504;52.616;13.238;2023-03-01T08:24:34;-0.13;74.40
6930;DHT22;3504;52.616;13.238;2023-03-01T08:29:35;0.10;73.32
6930;DHT22;3504;52.616;13.238;2023-03-01T08:34:35;0.41;72.55
6930;DHT22;3504;52.616;13.238;2023-03-01T08:39:36;0.69;72.20
6930;DHT22;3504;52.616;13.238;2023-03-01T08:44:36;0.97;71.47
6930;DHT22;3504;52.616;13.238;2023-03-01T08:49:37;1.23;70.98
6930;DHT22;3504;52.616;13.238;2023-03-01T08:54:37;1.55;69.58
6930;DHT22;3504;52.616;13.238;2023-03-01T08:59:38;1.89;70.09
6930;DHT22;3504;52.616;13.238;2023-03-01T09:04:39;2.19;68.34
6930;DHT22;3504;52.616;13.238;2023-03-01T09:09:40;2.49;66.70
6930;DHT22;3504;52.616;13.238;2023-03-01T09:14:40;2.83;65.62
6930;DHT22;3504;52.616;13.238;2023-03-01T09:19:42;3.08;64.88
6930;DHT22;3504;52.616;13.238;2023-03-01T09:24:42;3.43;63.51
6930;DHT22;3504;52.616;13.238;2023-03-01T09:29:43;3.69;61.28
6930;DHT22;3504;52.616;13.238;2023-03-01T09:34:43;4.04;62.26
6930;DHT22;3504;52.616;13.238;2023-03-01T09:40:06;4.46;61.08
6930;DHT22;3504;52.616;13.238;2023-03-01T09:45:23;4.84;59.42
6930;DHT22;3504;52.616;13.238;2023-03-01T09:50:31;5.24;57.94
6930;DHT22;3504;52.616;13.238;2023-03-01T10:00:43;5.64;54.79
6930;DHT22;3504;52.616;13.238;2023-03-01T10:05:59;5.81;54.67
6930;DHT22;3504;52.616;13.238;2023-03-01T10:11:03;6.00;52.77
6930;DHT22;3504;52.616;13.238;2023-03-01T10:16:13;6.10;50.30
6930;DHT22;3504;52.616;13.238;2023-03-01T10:21:19;6.37;52.82
6930;DHT22;3504;52.616;13.238;2023-03-01T10:26:43;6.33;49.87
6930;DHT22;3504;52.616;13.238;2023-03-01T10:31:49;6.72;52.20
6930;DHT22;3504;52.616;13.238;2023-03-01T10:36:55;6.99;51.17
6930;DHT22;3504;52.616;13.238;2023-03-01T10:42:00;7.42;49.58
6930;DHT22;3504;52.616;13.238;2023-03-01T10:47:01;7.65;47.88
6930;DHT22;3504;52.616;13.238;2023-03-01T10:52:18;7.97;47.26
6930;DHT22;3504;52.616;13.238;2023-03-01T10:57:37;8.26;46.36
6930;DHT22;3504;52.616;13.238;2023-03-01T11:02:38;8.49;46.64
6930;DHT22;3504;52.616;13.238;2023-03-01T11:07:49;8.59;43.01
6930;DHT22;3504;52.616;13.238;2023-03-01T11:12:52;8.35;45.94
6930;DHT22;3504;52.616;13.238;2023-03-01T11:17:54;8.59;46.00
6930;DHT22;3504;52.616;13.238;2023-03-01T11:23:08;8.73;44.39
6930;DHT22;3504;52.616;13.238;2023-03-01T11:28:17;8.77;44.34
6930;DHT22;3504;52.616;13.238;2023-03-01T11:38:38;8.64;42.30
6930;DHT22;3504;52.616;13.238;2023-03-01T11:55:27;8.40;38.14
6930;DHT22;3504;52.616;13.238;2023-03-01T12:12:01;8.67;38.72
6930;DHT22;3504;52.616;13.238;2023-03-01T12:17:15;8.79;37.71
6930;DHT22;3504;52.616;13.238;2023-03-01T12:22:30;8.83;37.50
6930;DHT22;3504;52.616;13.238;2023-03-01T12:27:50;8.76;34.20
6930;DHT22;3504;52.616;13.238;2023-03-01T12:33:26;8.64;36.35
6930;DHT22;3504;52.616;13.238;2023-03-01T12:38:49;8.87;36.43
6930;DHT22;3504;52.616;13.238;2023-03-01T12:50:11;8.89;33.54
6930;DHT22;3504;52.616;13.238;2023-03-01T12:55:36;8.67;34.37
6930;DHT22;3504;52.616;13.238;2023-03-01T13:00:48;8.56;35.00
6930;DHT22;3504;52.616;13.238;2023-03-01T13:06:09;8.67;35.61
6930;DHT22;3504;52.616;13.238;2023-03-01T13:11:20;8.70;37.07
6930;DHT22;3504;52.616;13.238;2023-03-01T13:21:31;8.52;38.07
6930;DHT22;3504;52.616;13.238;2023-03-01T13:32:32;8.63;40.44
6930;DHT22;3504;52.616;13.238;2023-03-01T13:37:37;8.59;40.24
6930;DHT22;3504;52.616;13.238;2023-03-01T13:42:41;8.53;39.94
6930;DHT22;3504;52.616;13.238;2023-03-01T13:47:45;8.52;39.58
6930;DHT22;3504;52.616;13.238;2023-03-01T13:52:55;8.48;39.75
6930;DHT22;3504;52.616;13.238;2023-03-01T13:58:03;8.50;40.37
6930;DHT22;3504;52.616;13.238;2023-03-01T14:03:18;8.59;41.44
6930;DHT22;3504;52.616;13.238;2023-03-01T14:08:23;8.63;39.66
6930;DHT22;3504;52.616;13.238;2023-03-01T14:13:49;8.61;41.70
6930;DHT22;3504;52.616;13.238;2023-03-01T14:19:16;8.63;39.71
6930;DHT22;3504;52.616;13.238;2023-03-01T14:24:21;8.63;41.16
6930;DHT22;3504;52.616;13.238;2023-03-01T14:29:36;8.59;41.43
6930;DHT22;3504;52.616;13.238;2023-03-01T14:34:44;8.63;40.98
6930;DHT22;3504;52.616;13.238;2023-03-01T14:39:45;8.54;39.91
6930;DHT22;3504;52.616;13.238;2023-03-01T14:44:48;8.57;42.14
6930;DHT22;3504;52.616;13.238;2023-03-01T14:50:00;8.53;41.97
6930;DHT22;3504;52.616;13.238;2023-03-01T14:55:15;8.52;41.97
6930;DHT22;3504;52.616;13.238;2023-03-01T15:00:24;8.52;42.47
6930;DHT22;3504;52.616;13.238;2023-03-01T15:05:30;8.50;42.59
6930;DHT22;3504;52.616;13.238;2023-03-01T15:10:34;8.48;43.47
6930;DHT22;3504;52.616;13.238;2023-03-01T15:15:40;8.42;42.98
6930;DHT22;3504;52.616;13.238;2023-03-01T15:20:41;8.45;44.00
6930;DHT22;3504;52.616;13.238;2023-03-01T15:25:44;8.40;44.43
6930;DHT22;3504;52.616;13.238;2023-03-01T15:30:45;8.35;44.87
6930;DHT22;3504;52.616;13.238;2023-03-01T15:35:51;8.28;45.86
6930;DHT22;3504;52.616;13.238;2023-03-01T15:40:52;8.19;46.10
6930;DHT22;3504;52.616;13.238;2023-03-01T15:45:57;8.11;46.50
6930;DHT22;3504;52.616;13.238;2023-03-01T15:50:59;8.02;46.42
6930;DHT22;3504;52.616;13.238;2023-03-01T15:55:59;7.95;47.17
6930;DHT22;3504;52.616;13.238;2023-03-01T16:01:00;7.83;47.80
6930;DHT22;3504;52.616;13.238;2023-03-01T16:06:00;7.77;48.41
6930;DHT22;3504;52.616;13.238;2023-03-01T16:11:01;7.64;48.84
6930;DHT22;3504;52.616;13.238;2023-03-01T16:16:05;7.56;49.23
6930;DHT22;3504;52.616;13.238;2023-03-01T16:21:05;7.43;49.82
6930;DHT22;3504;52.616;13.238;2023-03-01T16:26:06;7.29;50.21
6930;DHT22;3504;52.616;13.238;2023-03-01T16:31:06;7.12;50.63
6930;DHT22;3504;52.616;13.238;2023-03-01T16:36:11;6.96;51.28
6930;DHT22;3504;52.616;13.238;2023-03-01T16:41:15;6.80;52.01
6930;DHT22;3504;52.616;13.238;2023-03-01T16:46:19;6.64;52.77
6930;DHT22;3504;52.616;13.238;2023-03-01T16:51:21;6.42;53.97
6930;DHT22;3504;52.616;13.238;2023-03-01T16:56:22;6.19;54.76
6930;DHT22;3504;52.616;13.238;2023-03-01T17:01:22;6.02;55.68
6930;DHT22;3504;52.616;13.238;2023-03-01T17:06:26;5.81;56.23
6930;DHT22;3504;52.616;13.238;2023-03-01T17:11:27;5.62;56.99
6930;DHT22;3504;52.616;13.238;2023-03-01T17:16:27;5.42;57.98
6930;DHT22;3504;52.616;13.238;2023-03-01T17:21:28;5.27;57.75
6930;DHT22;3504;52.616;13.238;2023-03-01T17:26:29;5.10;58.65
6930;DHT22;3504;52.616;13.238;2023-03-01T17:31:31;4.94;59.40
6930;DHT22;3504;52.616;13.238;2023-03-01T17:36:32;4.76;59.76
6930;DHT22;3504;52.616;13.238;2023-03-01T17:41:40;4.53;61.07
6930;DHT22;3504;52.616;13.238;2023-03-01T17:46:41;4.46;61.00
6930;DHT22;3504;52.616;13.238;2023-03-01T17:51:42;4.29;61.44
6930;DHT22;3504;52.616;13.238;2023-03-01T17:56:43;4.18;61.39
6930;DHT22;3504;52.616;13.238;2023-03-01T18:01:44;4.08;61.10
6930;DHT22;3504;52.616;13.238;2023-03-01T18:06:44;3.97;61.55
6930;DHT22;3504;52.616;13.238;2023-03-01T18:11:45;3.89;61.83
6930;DHT22;3504;52.616;13.238;2023-03-01T18:16:45;3.77;62.28
6930;DHT22;3504;52.616;13.238;2023-03-01T18:21:46;3.63;63.05
6930;DHT22;3504;52.616;13.238;2023-03-01T18:26:46;3.49;63.16
6930;DHT22;3504;52.616;13.238;2023-03-01T18:31:47;3.39;63.89
6930;DHT22;3504;52.616;13.238;2023-03-01T18:36:47;3.26;64.12
6930;DHT22;3504;52.616;13.238;2023-03-01T18:41:51;3.18;64.55
6930;DHT22;3504;52.616;13.238;2023-03-01T18:46:51;2.99;64.85
6930;DHT22;3504;52.616;13.238;2023-03-01T18:51:52;2.84;65.19
6930;DHT22;3504;52.616;13.238;2023-03-01T18:56:53;2.74;65.75
6930;DHT22;3504;52.616;13.238;2023-03-01T19:01:53;2.60;66.37
6930;DHT22;3504;52.616;13.238;2023-03-01T19:06:54;2.53;66.21
6930;DHT22;3504;52.616;13.238;2023-03-01T19:11:54;2.42;66.16
6930;DHT22;3504;52.616;13.238;2023-03-01T19:16:58;2.36;67.18
6930;DHT22;3504;52.616;13.238;2023-03-01T19:21:58;2.29;66.19
6930;DHT22;3504;52.616;13.238;2023-03-01T19:26:58;2.17;67.27
6930;DHT22;3504;52.616;13.238;2023-03-01T19:31:59;1.98;67.95
6930;DHT22;3504;52.616;13.238;2023-03-01T19:37:00;1.96;67.13
6930;DHT22;3504;52.616;13.238;2023-03-01T19:42:00;1.84;68.45
6930;DHT22;3504;52.616;13.238;2023-03-01T19:47:01;1.81;67.80
6930;DHT22;3504;52.616;13.238;2023-03-01T19:52:02;1.77;67.42
6930;DHT22;3504;52.616;13.238;2023-03-01T19:57:03;1.70;67.14
6930;DHT22;3504;52.616;13.238;2023-03-01T20:02:03;1.52;68.64
6930;DHT22;3504;52.616;13.238;2023-03-01T20:07:04;1.31;69.32
6930;DHT22;3504;52.616;13.238;2023-03-01T20:12:05;1.24;69.72
6930;DHT22;3504;52.616;13.238;2023-03-01T20:17:05;1.26;69.41
6930;DHT22;3504;52.616;13.238;2023-03-01T20:22:06;1.23;68.98
6930;DHT22;3504;52.616;13.238;2023-03-01T20:27:06;1.24;69.29
6930;DHT22;3504;52.616;13.238;2023-03-01T20:32:07;1.20;69.40
6930;DHT22;3504;52.616;13.238;2023-03-01T20:37:09;1.13;69.47
6930;DHT22;3504;52.616;13.238;2023-03-01T20:42:09;1.10;69.90
6930;DHT22;3504;52.616;13.238;2023-03-01T20:47:10;1.00;69.80
6930;DHT22;3504;52.616;13.238;2023-03-01T20:52:11;0.99;69.30
6930;DHT22;3504;52.616;13.238;2023-03-01T20:57:11;0.97;69.71
6930;DHT22;3504;52.616;13.238;2023-03-01T21:02:12;0.86;70.57
6930;DHT22;3504;52.616;13.238;2023-03-01T21:07:12;0.66;71.45
6930;DHT22;3504;52.616;13.238;2023-03-01T21:12:13;0.54;71.93
6930;DHT22;3504;52.616;13.238;2023-03-01T21:17:16;0.55;71.56
6930;DHT22;3504;52.616;13.238;2023-03-01T21:22:16;0.51;72.24
6930;DHT22;3504;52.616;13.238;2023-03-01T21:27:17;0.47;72.17
6930;DHT22;3504;52.616;13.238;2023-03-01T21:32:18;0.49;71.60
6930;DHT22;3504;52.616;13.238;2023-03-01T21:37:18;0.48;71.83
6930;DHT22;3504;52.616;13.238;2023-03-01T21:42:21;0.48;71.64
6930;DHT22;3504;52.616;13.238;2023-03-01T21:47:22;0.45;71.33
6930;DHT22;3504;52.616;13.238;2023-03-01T21:52:22;0.44;71.37
6930;DHT22;3504;52.616;13.238;2023-03-01T21:57:23;0.44;71.20
6930;DHT22;3504;52.616;13.238;2023-03-01T22:02:23;0.41;71.41
6930;DHT22;3504;52.616;13.238;2023-03-01T22:07:24;0.36;71.40
6930;DHT22;3504;52.616;13.238;2023-03-01T22:12:24;0.27;72.09
6930;DHT22;3504;52.616;13.238;2023-03-01T22:17:25;0.23;72.33
6930;DHT22;3504;52.616;13.238;2023-03-01T22:22:26;0.17;72.42
6930;DHT22;3504;52.616;13.238;2023-03-01T22:27:26;0.17;72.13
6930;DHT22;3504;52.616;13.238;2023-03-01T22:32:27;0.16;72.32
6930;DHT22;3504;52.616;13.238;2023-03-01T22:37:27;0.13;72.40
6930;DHT22;3504;52.616;13.238;2023-03-01T22:42:28;0.14;71.97
6930;DHT22;3504;52.616;13.238;2023-03-01T22:47:28;0.10;71.93
6930;DHT22;3504;52.616;13.238;2023-03-01T22:52:29;0.00;72.69
6930;DHT22;3504;52.616;13.238;2023-03-01T22:57:29;-0.03;72.83
6930;DHT22;3504;52.616;13.238;2023-03-01T23:02:31;-0.04;72.80
6930;DHT22;3504;52.616;13.238;2023-03-01T23:07:35;-0.10;73.09
6930;DHT22;3504;52.616;13.238;2023-03-01T23:12:36;-0.18;73.51
6930;DHT22;3504;52.616;13.238;2023-03-01T23:17:37;-0.25;73.93
6930;DHT22;3504;52.616;13.238;2023-03-01T23:22:37;-0.42;74.77
6930;DHT22;3504;52.616;13.238;2023-03-01T23:27:38;-0.51;74.98
6930;DHT22;3504;52.616;13.238;2023-03-01T23:32:38;-0.46;74.20
6930;DHT22;3504;52.616;13.238;2023-03-01T23:37:39;-0.46;74.48
6930;DHT22;3504;52.616;13.238;2023-03-01T23:42:40;-0.42;74.18
6930;DHT22;3504;52.616;13.238;2023-03-01T23:47:40;-0.42;73.89
6930;DHT22;3504;52.616;13.238;2023-03-01T23:52:42;-0.49;74.21
6930;DHT22;3504;52.616;13.238;2023-03-01T23:57:43;-0.52;75.02
